Time;durP1;ratioP1;P1;durP2;ratioP2;P2;SDS_P1;SDS_P2;PMS_P1;PMS_P2;Temp;Humidity;BMP_temperature;BMP_pressure;BME280_temperature;BME280_humidity;BME280_pressure;Samples;Min_cycle;Max_cycle;Signal;HPM_P1;HPM_P2
2021/12/21 00:01:28;;;;;;;22.77;9.40;;;;;;;-2.77;72.58;97554.46;1709997;83;25917;-79
2021/12/21 00:03:55;;;;;;;18.65;8.10;;;;;;;-2.79;72.63;97555.94;1710075;82;25874;-79
2021/12/21 00:06:21;;;;;;;20.10;8.15;;;;;;;-2.85;72.47;97547.17;1710236;82;27209;-80
2021/12/21 00:08:48;;;;;;;18.98;8.30;;;;;;;-2.87;72.44;97553.05;1709926;82;26349;-79
2021/12/21 00:11:16;;;;;;;24.10;9.43;;;;;;;-2.91;72.38;97545.88;1710173;82;26215;-79
2021/12/21 00:14:39;;;;;;;17.60;8.68;;;;;;;-2.95;72.57;97546.24;1709922;82;26495;-79
2021/12/21 00:16:42;;;;;;;19.27;8.78;;;;;;;-2.93;72.58;97553.57;1678529;84;25334;-79
2021/12/21 00:21:35;;;;;;;21.87;7.72;;;;;;;-2.86;72.71;97556.53;1679910;85;25937;-79
2021/12/21 00:23:58;;;;;;;18.20;7.87;;;;;;;-2.92;72.77;97561.37;1711729;82;26006;-79
2021/12/21 00:26:22;;;;;;;20.50;8.65;;;;;;;-3.03;72.92;97569.80;1679036;85;26579;-79
2021/12/21 00:28:59;;;;;;;18.27;8.53;;;;;;;-3.03;73.27;97565.84;1712386;82;25686;-79
2021/12/21 00:31:29;;;;;;;17.07;7.15;;;;;;;-3.01;73.39;97569.17;1718332;82;28283;-79
2021/12/21 00:33:56;;;;;;;15.58;7.10;;;;;;;-2.99;73.48;97569.89;1679877;85;25716;-79
2021/12/21 00:36:25;;;;;;;12.95;7.33;;;;;;;-3.03;73.41;97577.25;1709997;82;25760;-79
2021/12/21 00:38:55;;;;;;;19.25;8.70;;;;;;;-3.03;73.53;97579.05;1652162;85;26699;-79
2021/12/21 00:41:22;;;;;;;19.20;8.75;;;;;;;-3.09;73.62;97576.87;1681241;84;25750;-79
2021/12/21 00:43:49;;;;;;;17.17;8.50;;;;;;;-3.12;73.77;97576.64;1681381;84;27245;-79
2021/12/21 00:46:17;;;;;;;25.70;9.85;;;;;;;-3.08;73.92;97571.96;1681324;84;25731;-79
2021/12/21 00:48:51;;;;;;;22.85;9.60;;;;;;;-3.05;73.94;97579.64;1672074;84;25692;-80
2021/12/21 00:51:19;;;;;;;23.47;9.35;;;;;;;-3.05;73.96;97586.25;1671165;84;26597;-79
2021/12/21 00:53:46;;;;;;;22.87;10.05;;;;;;;-3.04;74.03;97586.61;1671357;84;25667;-79
2021/12/21 00:56:13;;;;;;;21.23;9.13;;;;;;;-3.04;74.10;97587.45;1673997;84;27476;-79
2021/12/21 00:58:41;;;;;;;21.52;10.88;;;;;;;-3.05;74.06;97585.77;1673564;85;26455;-79
2021/12/21 01:01:09;;;;;;;22.85;10.18;;;;;;;-3.13;74.07;97588.16;1659726;85;25795;-80
2021/12/21 01:03:41;;;;;;;22.52;9.65;;;;;;;-3.18;74.21;97587.70;1668957;84;26514;-79
2021/12/21 01:06:23;;;;;;;21.35;10.58;;;;;;;-3.17;74.35;97587.23;1702145;83;25778;-79
2021/12/21 01:09:39;;;;;;;25.30;10.80;;;;;;;-3.15;74.57;97582.67;1679394;85;27482;-79
2021/12/21 01:11:20;;;;;;;22.07;10.82;;;;;;;-3.04;74.67;97586.61;1669233;85;25882;-79
2021/12/21 01:13:55;;;;;;;15.73;7.30;;;;;;;-3.00;74.69;97582.73;1681000;85;25346;-79
2021/12/21 01:16:20;;;;;;;20.80;10.13;;;;;;;-2.98;74.69;97582.98;1701504;84;25704;-79
2021/12/21 01:18:59;;;;;;;24.52;11.28;;;;;;;-3.00;74.76;97588.02;1701491;84;25707;-79
2021/12/21 01:21:15;;;;;;;28.57;11.12;;;;;;;-3.02;74.80;97586.02;1700440;84;28036;-79
2021/12/21 01:23:55;;;;;;;18.15;9.88;;;;;;;-3.12;74.68;97584.56;1701716;84;26055;-79
2021/12/21 01:26:18;;;;;;;19.87;9.58;;;;;;;-3.13;74.80;97589.95;1700470;84;25780;-79
2021/12/21 01:28:52;;;;;;;20.62;10.20;;;;;;;-3.14;74.92;97585.16;1701524;84;25711;-79
2021/12/21 01:36:28;;;;;;;18.27;8.60;;;;;;;-3.20;74.98;97596.70;1696906;83;26444;-79
2021/12/21 01:39:03;;;;;;;16.42;8.88;;;;;;;-3.19;75.13;97593.10;1695638;83;25554;-79
2021/12/21 01:41:31;;;;;;;19.10;9.70;;;;;;;-3.18;75.21;97592.98;1695626;83;26362;-79
2021/12/21 01:44:07;;;;;;;15.53;7.85;;;;;;;-3.14;75.21;97600.19;1695624;84;25690;-79
2021/12/21 01:51:49;;;;;;;18.50;8.78;;;;;;;-3.17;75.12;97610.98;1696751;83;25856;-79
2021/12/21 01:54:16;;;;;;;19.00;8.95;;;;;;;-3.22;75.19;97606.54;1675593;84;25769;-78
2021/12/21 01:56:42;;;;;;;17.37;8.38;;;;;;;-3.21;75.25;97606.90;1710782;82;25812;-79
2021/12/21 01:59:10;;;;;;;18.45;8.60;;;;;;;-3.24;75.18;97599.22;1697045;83;28067;-78
2021/12/21 02:01:36;;;;;;;20.27;9.83;;;;;;;-3.27;75.30;97599.84;1696867;83;25736;-78
2021/12/21 02:04:03;;;;;;;19.30;9.93;;;;;;;-3.27;75.40;97603.80;1697047;83;25751;-78
2021/12/21 02:06:31;;;;;;;18.90;9.68;;;;;;;-3.23;75.47;97588.53;1696981;83;25800;-78
2021/12/21 02:08:58;;;;;;;16.65;8.43;;;;;;;-3.20;75.48;97593.58;1696819;84;25733;-79
2021/12/21 02:11:24;;;;;;;15.20;8.20;;;;;;;-3.19;75.52;97593.10;1697049;83;27342;-78
2021/12/21 02:13:52;;;;;;;16.15;8.20;;;;;;;-3.13;75.55;97587.31;1696953;83;25765;-77
2021/12/21 02:16:33;;;;;;;14.80;7.97;;;;;;;-3.07;75.48;97586.37;1696868;83;26277;-79
2021/12/21 02:18:59;;;;;;;;;;;;;;;-3.03;75.37;97592.25;1697079;83;25850;-78
2021/12/21 02:23:52;;;;;;;15.15;7.97;;;;;;;-3.13;75.22;97584.67;1669849;84;27423;-78
2021/12/21 02:26:37;;;;;;;20.23;8.35;;;;;;;-3.12;75.31;97582.40;1702035;82;27692;-78
2021/12/21 02:29:11;;;;;;;17.95;8.85;;;;;;;-3.11;75.27;97590.69;1666815;84;32404;-77
2021/12/21 02:31:31;;;;;;;16.93;8.25;;;;;;;-3.11;75.22;97589.36;1704863;82;25813;-78
2021/12/21 02:33:58;;;;;;;18.40;8.78;;;;;;;-3.05;75.33;97588.89;1702328;84;25695;-78
2021/12/21 02:36:26;;;;;;;12.20;7.40;;;;;;;-3.06;75.14;97592.02;1702243;83;27453;-78
2021/12/21 02:38:52;;;;;;;18.73;8.45;;;;;;;-3.05;75.16;97593.69;1702142;84;25801;-78
2021/12/21 02:41:19;;;;;;;19.62;9.70;;;;;;;-3.02;75.19;97605.82;1702210;83;25786;-78
2021/12/21 02:43:45;;;;;;;14.80;9.00;;;;;;;-3.09;75.01;97604.61;1702156;83;25782;-78
2021/12/21 02:46:12;;;;;;;18.82;9.05;;;;;;;-3.09;75.13;97596.20;1702309;84;25839;-78
2021/12/21 02:48:39;;;;;;;16.85;9.75;;;;;;;-3.04;75.12;97601.13;1699279;83;27367;-78
2021/12/21 02:51:06;;;;;;;22.60;9.75;;;;;;;-3.01;75.15;97599.06;1697159;84;25805;-79
2021/12/21 02:53:33;;;;;;;15.55;8.43;;;;;;;-2.94;75.18;97603.39;1699223;84;26346;-79
2021/12/21 02:55:59;;;;;;;15.45;9.20;;;;;;;-2.94;75.03;97606.03;1669834;85;25758;-79
2021/12/21 02:58:26;;;;;;;15.45;9.38;;;;;;;-2.96;74.90;97597.39;1669969;85;25759;-78
2021/12/21 03:00:54;;;;;;;17.20;9.70;;;;;;;-2.95;74.94;97599.07;1696794;84;27423;-78
2021/12/21 03:03:21;;;;;;;19.52;9.45;;;;;;;-2.96;74.93;97590.30;1668204;84;25781;-78
2021/12/21 03:05:54;;;;;;;16.15;10.10;;;;;;;-2.98;74.87;97586.94;1699222;83;26375;-78
2021/12/21 03:08:23;;;;;;;19.00;8.63;;;;;;;-2.94;74.96;97586.23;1702722;82;25793;-78
2021/12/21 03:11:15;;;;;;;18.20;10.25;;;;;;;-2.91;74.93;97598.72;1702083;83;25742;-78
2021/12/21 03:14:03;;;;;;;19.82;11.18;;;;;;;-2.85;74.94;97597.36;1680555;85;28215;-78
2021/12/21 03:16:20;;;;;;;17.10;9.73;;;;;;;-2.83;74.81;97608.66;1679751;85;25717;-79
2021/12/21 03:18:48;;;;;;;22.67;10.25;;;;;;;-2.84;74.77;97606.13;1681811;84;25829;-78
2021/12/21 03:21:15;;;;;;;18.05;9.65;;;;;;;-2.83;74.85;97607.33;1699500;84;25694;-79
2021/12/21 03:23:41;;;;;;;20.20;10.68;;;;;;;-2.80;74.82;97604.93;1697059;83;25661;-78
2021/12/21 03:26:08;;;;;;;15.65;9.10;;;;;;;-2.80;74.73;97600.48;1697011;83;27272;-78
2021/12/21 03:28:35;;;;;;;17.80;9.68;;;;;;;-2.75;74.71;97605.38;1696009;84;25764;-79
2021/12/21 03:31:02;;;;;;;17.27;9.65;;;;;;;-2.75;74.73;97600.94;1669689;83;25859;-78
2021/12/21 03:33:28;;;;;;;18.07;9.05;;;;;;;-2.73;74.63;97596.38;1699483;83;25860;-79
2021/12/21 03:35:55;;;;;;;16.23;9.70;;;;;;;-2.71;74.64;97594.45;1702311;83;25687;-78
2021/12/21 03:38:22;;;;;;;19.42;10.08;;;;;;;-2.75;74.48;97596.97;1699582;83;27358;-79
2021/12/21 03:40:48;;;;;;;15.88;9.28;;;;;;;-2.78;74.48;97594.60;1702002;83;25758;-78
2021/12/21 03:43:15;;;;;;;19.15;9.65;;;;;;;-2.78;74.49;97588.00;1669781;84;26384;-78
2021/12/21 03:45:50;;;;;;;18.17;8.95;;;;;;;-2.79;74.56;97600.01;1669774;85;26442;-78
2021/12/21 03:48:13;;;;;;;18.12;9.63;;;;;;;-2.78;74.54;97597.25;1676148;84;25786;-78
2021/12/21 03:50:38;;;;;;;21.62;9.48;;;;;;;-2.83;74.44;97592.80;1702484;83;28292;-78
2021/12/21 03:53:05;;;;;;;20.55;9.83;;;;;;;-2.84;74.56;97595.08;1673031;85;25801;-79
2021/12/21 03:55:31;;;;;;;17.50;9.28;;;;;;;-2.88;74.57;97592.32;1673055;84;25796;-78
2021/12/21 03:57:58;;;;;;;16.65;8.85;;;;;;;-2.88;74.67;97595.44;1673037;84;26461;-78
2021/12/21 04:00:27;;;;;;;18.65;9.50;;;;;;;-2.89;74.71;97595.92;1702626;83;25765;-79
2021/12/21 04:02:53;;;;;;;19.85;9.88;;;;;;;-2.87;74.83;97597.12;1672986;85;27481;-79
2021/12/21 04:05:19;;;;;;;20.37;10.48;;;;;;;-2.82;74.88;97591.84;1702402;83;25715;-78
2021/12/21 04:07:46;;;;;;;24.27;9.10;;;;;;;-2.75;74.88;97583.77;1673985;84;25690;-79
2021/12/21 04:10:13;;;;;;;19.37;9.93;;;;;;;-2.81;74.67;97584.27;1674526;85;26448;-78
2021/12/21 04:12:40;;;;;;;19.87;10.10;;;;;;;-2.87;74.72;97590.52;1686408;84;25750;-78
2021/12/21 04:15:07;;;;;;;23.10;11.48;;;;;;;-2.93;74.83;97591.87;1688428;84;27357;-79
2021/12/21 04:17:34;;;;;;;24.20;11.08;;;;;;;-2.92;75.02;97591.75;1686350;84;25775;-78
2021/12/21 04:20:01;;;;;;;26.45;12.55;;;;;;;-2.93;74.97;97594.52;1686286;84;25714;-79
2021/12/21 04:22:28;;;;;;;20.45;10.58;;;;;;;-2.97;75.08;97583.82;1686136;84;25770;-79
2021/12/21 04:24:55;;;;;;;29.32;12.95;;;;;;;-2.94;75.14;97600.27;1688528;84;25769;-79
2021/12/21 04:27:21;;;;;;;31.55;14.23;;;;;;;-3.00;75.14;97606.51;1686395;84;28112;-79
2021/12/21 04:29:48;;;;;;;31.90;13.70;;;;;;;-3.02;75.16;97607.14;1686224;85;25797;-78
2021/12/21 04:32:15;;;;;;;24.50;11.97;;;;;;;-3.04;75.30;97602.45;1686350;84;25892;-78
2021/12/21 04:34:43;;;;;;;23.60;12.00;;;;;;;-3.02;75.40;97605.30;1686079;84;25851;-78
2021/12/21 04:37:10;;;;;;;24.47;11.18;;;;;;;-3.00;75.52;97615.75;1686273;84;25753;-79
2021/12/21 04:39:43;;;;;;;21.95;11.30;;;;;;;-2.96;75.62;97608.80;1686381;84;27353;-78
2021/12/21 04:42:06;;;;;;;20.27;10.90;;;;;;;-2.94;75.69;97620.56;1674472;84;25769;-78
2021/12/21 04:44:33;;;;;;;22.40;11.43;;;;;;;-2.89;75.79;97622.34;1672991;84;25783;-78
2021/12/21 04:47:00;;;;;;;23.18;10.93;;;;;;;-2.89;75.73;97621.02;1673071;85;26502;-78
2021/12/21 04:49:27;;;;;;;28.32;12.80;;;;;;;-2.89;75.76;97617.05;1677758;84;25739;-78
2021/12/21 04:51:53;;;;;;;20.62;10.55;;;;;;;-2.90;75.82;97615.41;1681856;85;28517;-78
2021/12/21 04:54:20;;;;;;;18.85;10.35;;;;;;;-2.89;75.78;97622.34;1702258;84;25873;-78
2021/12/21 04:56:47;;;;;;;25.82;12.33;;;;;;;-2.92;75.77;97618.64;1702360;84;25774;-78
2021/12/21 04:59:13;;;;;;;19.30;11.10;;;;;;;-2.88;75.85;97621.86;1702310;84;25834;-78
2021/12/21 05:01:40;;;;;;;21.48;11.12;;;;;;;-2.84;75.85;97625.47;1702451;84;25655;-79
2021/12/21 05:04:06;;;;;;;22.22;11.33;;;;;;;-2.82;75.86;97617.42;1702041;84;27432;-78
2021/12/21 05:06:33;;;;;;;18.75;10.38;;;;;;;-2.78;75.87;97624.98;1702278;84;25761;-78
2021/12/21 05:09:07;;;;;;;22.20;11.45;;;;;;;-2.75;75.76;97626.52;1701776;84;25761;-78
2021/12/21 05:11:34;;;;;;;21.90;12.20;;;;;;;-2.80;75.59;97629.55;1701864;84;26341;-78
2021/12/21 05:14:01;;;;;;;23.12;11.75;;;;;;;-2.85;75.55;97634.34;1697790;84;25706;-78
2021/12/21 05:16:28;;;;;;;19.25;10.75;;;;;;;-2.88;75.50;97643.83;1697531;84;27419;-78
2021/12/21 05:18:54;;;;;;;19.32;10.10;;;;;;;-2.96;75.40;97635.69;1697652;84;26186;-78
2021/12/21 05:21:21;;;;;;;19.60;9.83;;;;;;;-2.95;75.38;97640.02;1697777;84;25523;-79
2021/12/21 05:23:47;;;;;;;17.62;9.60;;;;;;;-3.00;75.18;97638.20;1697766;84;25837;-78
2021/12/21 05:26:14;;;;;;;19.25;9.75;;;;;;;-3.12;75.18;97644.45;1697831;83;25799;-79
2021/12/21 05:28:40;;;;;;;16.60;8.33;;;;;;;-3.15;75.33;97638.12;1697756;84;28259;-79
2021/12/21 05:31:07;;;;;;;13.80;8.83;;;;;;;-3.17;75.38;97643.99;1696742;84;25877;-79
2021/12/21 05:33:34;;;;;;;19.23;9.83;;;;;;;-3.19;75.38;97646.75;1697536;84;25707;-79
2021/12/21 05:36:00;;;;;;;20.75;11.35;;;;;;;-3.21;75.47;97646.50;1697849;84;25651;-78
2021/12/21 05:38:33;;;;;;;31.97;15.68;;;;;;;-3.16;75.53;97645.67;1697796;84;25814;-78
2021/12/21 05:41:01;;;;;;;29.80;15.60;;;;;;;-3.08;75.62;97643.27;1697649;84;27417;-79
2021/12/21 05:43:27;;;;;;;35.92;16.85;;;;;;;-3.04;75.53;97647.35;1697626;84;26478;-79
2021/12/21 05:45:54;;;;;;;32.85;16.82;;;;;;;-3.01;75.60;97650.56;1697853;84;25662;-78
2021/12/21 05:48:21;;;;;;;34.55;14.87;;;;;;;-3.01;75.51;97648.41;1697831;84;25894;-78
2021/12/21 05:50:47;;;;;;;29.80;14.40;;;;;;;-2.97;75.49;97645.89;1687611;84;25887;-79
2021/12/21 05:53:14;;;;;;;24.30;12.05;;;;;;;-2.96;75.46;97643.61;1687527;85;28236;-79
2021/12/21 05:55:41;;;;;;;19.42;11.22;;;;;;;-2.96;75.49;97645.77;1687123;85;25735;-79
2021/12/21 05:58:08;;;;;;;19.98;11.05;;;;;;;-2.94;75.51;97639.89;1687509;84;25726;-77
2021/12/21 06:00:36;;;;;;;23.42;11.30;;;;;;;-2.93;75.47;97655.27;1687505;84;26470;-78
2021/12/21 06:03:03;;;;;;;23.92;11.40;;;;;;;-2.93;75.51;97644.70;1687533;85;25757;-78
2021/12/21 06:05:30;;;;;;;24.92;11.93;;;;;;;-2.95;75.55;97640.85;1687516;85;28039;-79
2021/12/21 06:07:56;;;;;;;22.80;12.85;;;;;;;-2.97;75.53;97651.17;1687509;84;25667;-79
2021/12/21 06:10:30;;;;;;;25.25;12.10;;;;;;;-3.01;75.55;97650.56;1687538;84;25674;-79
2021/12/21 06:15:28;;;;;;;20.40;11.30;;;;;;;-2.94;75.62;97656.22;1687643;84;25257;-78
2021/12/21 06:25:55;;;;;;;21.45;12.30;;;;;;;-2.90;75.66;97653.70;1687606;85;25738;-80
2021/12/21 06:28:20;;;;;;;22.20;12.60;;;;;;;-2.90;75.67;97649.74;1687107;84;25476;-80
2021/12/21 06:30:47;;;;;;;25.40;12.53;;;;;;;-2.86;75.74;97649.00;1687463;85;27421;-79
2021/12/21 06:33:15;;;;;;;22.85;13.20;;;;;;;-2.85;75.75;97656.80;1687096;85;25927;-80
2021/12/21 06:35:41;;;;;;;26.82;14.15;;;;;;;-2.84;75.81;97659.80;1687525;85;25509;-79
2021/12/21 06:38:08;;;;;;;40.80;18.77;;;;;;;-2.91;75.82;97663.43;1687474;84;25736;-79
2021/12/21 06:40:35;;;;;;;25.17;14.45;;;;;;;-2.89;76.02;97672.53;1687556;84;25754;-80
2021/12/21 06:43:03;;;;;;;23.70;13.30;;;;;;;-2.94;76.09;97675.55;1687457;84;27433;-80
2021/12/21 06:53:31;;;;;;;24.00;14.87;;;;;;;-2.91;76.61;97671.84;1687308;85;26267;-79
2021/12/21 06:55:57;;;;;;;26.52;16.05;;;;;;;-2.83;76.68;97669.41;1687427;85;28134;-80
2021/12/21 06:58:24;;;;;;;46.35;23.75;;;;;;;-2.74;76.79;97671.31;1687302;85;25265;-80
2021/12/21 07:00:52;;;;;;;91.78;35.10;;;;;;;-2.70;76.72;97670.12;1686285;85;26327;-80
2021/12/21 07:03:21;;;;;;;48.05;22.52;;;;;;;-2.67;76.68;97673.84;1669996;85;25924;-80
2021/12/21 07:05:49;;;;;;;40.73;20.25;;;;;;;-2.62;76.65;97681.39;1669765;85;25244;-80
2021/12/21 07:08:21;;;;;;;34.53;17.40;;;;;;;-2.64;76.57;97677.55;1670000;85;27464;-80
2021/12/21 07:10:54;;;;;;;23.22;11.90;;;;;;;-2.61;76.59;97685.23;1669645;85;25629;-80
2021/12/21 07:18:45;;;;;;;24.37;13.65;;;;;;;-2.60;76.64;97686.91;1687560;85;25748;-80
2021/12/21 07:21:11;;;;;;;29.72;15.30;;;;;;;-2.56;76.79;97693.64;1687415;85;28276;-80
2021/12/21 07:23:38;;;;;;;25.25;14.53;;;;;;;-2.57;76.84;97689.32;1687134;85;25822;-80
2021/12/21 07:26:04;;;;;;;25.62;13.50;;;;;;;-2.57;76.95;97693.28;1687441;84;25273;-80
2021/12/21 07:28:31;;;;;;;26.33;14.50;;;;;;;-2.55;77.05;97701.09;1687585;85;25822;-80
2021/12/21 07:30:58;;;;;;;41.73;17.32;;;;;;;-2.54;77.12;97703.59;1687433;85;25791;-81
2021/12/21 07:33:24;;;;;;;106.32;32.70;;;;;;;-2.51;77.17;97699.86;1687451;85;27590;-81
2021/12/21 07:35:51;;;;;;;49.95;17.48;;;;;;;-2.63;76.96;97705.65;1687416;85;25266;-80
2021/12/21 07:38:19;;;;;;;23.95;10.63;;;;;;;-2.69;77.00;97713.24;1687479;84;25260;-81
2021/12/21 07:40:46;;;;;;;20.35;11.30;;;;;;;-2.76;76.91;97714.67;1687552;85;26554;-81
2021/12/21 07:43:12;;;;;;;32.25;15.20;;;;;;;-2.74;77.06;97731.25;1687599;85;25779;-81
2021/12/21 07:45:40;;;;;;;17.10;7.72;;;;;;;-2.77;77.12;97733.64;1687533;85;27419;-81
2021/12/21 07:48:07;;;;;;;5.22;3.33;;;;;;;-2.87;76.91;97734.02;1687396;84;25794;-82
2021/12/21 07:50:35;;;;;;;6.55;2.62;;;;;;;-3.11;76.57;97730.16;1687162;84;25718;-81
2021/12/21 07:53:02;;;;;;;6.35;3.22;;;;;;;-3.38;76.62;97741.03;1687461;85;25736;-81
2021/12/21 07:55:28;;;;;;;8.78;4.08;;;;;;;-3.53;77.09;97740.06;1687477;85;25274;-81
2021/12/21 07:57:55;;;;;;;9.70;4.50;;;;;;;-3.61;77.29;97737.98;1687501;85;27961;-81
2021/12/21 08:00:23;;;;;;;9.08;4.05;;;;;;;-3.59;77.54;97737.39;1687396;84;25753;-81
2021/12/21 08:02:49;;;;;;;11.83;4.08;;;;;;;-3.51;77.75;97741.63;1687454;85;25740;-81
2021/12/21 08:05:17;;;;;;;14.40;5.53;;;;;;;-3.45;77.77;97749.06;1687169;84;25806;-81
2021/12/21 08:07:50;;;;;;;14.93;5.47;;;;;;;-3.48;77.80;97747.13;1687278;84;25804;-82
2021/12/21 08:10:20;;;;;;;14.25;4.17;;;;;;;-3.50;77.89;97745.92;1686806;84;27386;-82
2021/12/21 08:12:46;;;;;;;7.65;3.83;;;;;;;-3.54;77.89;97744.50;1687426;84;26423;-82
2021/12/21 08:15:12;;;;;;;8.45;3.42;;;;;;;-3.46;78.19;97756.62;1687454;85;25809;-82
2021/12/21 08:17:39;;;;;;;5.85;2.70;;;;;;;-3.32;78.27;97752.46;1687236;85;26539;-82
2021/12/21 08:20:06;;;;;;;10.98;3.20;;;;;;;-3.34;77.92;97757.01;1687520;85;25716;-81
2021/12/21 08:22:33;;;;;;;10.38;4.05;;;;;;;-3.36;77.75;97760.23;1687562;84;28137;-81
2021/12/21 08:24:59;;;;;;;12.07;5.95;;;;;;;-3.31;77.75;97758.11;1687535;85;26365;-81
2021/12/21 08:27:26;;;;;;;14.87;6.12;;;;;;;-3.33;77.60;97753.42;1687572;85;26393;-82
2021/12/21 08:29:52;;;;;;;15.13;7.47;;;;;;;-3.27;77.71;97752.97;1687527;85;26255;-81
2021/12/21 08:32:19;;;;;;;20.68;7.90;;;;;;;-3.19;77.78;97751.52;1687628;85;26418;-81
2021/12/21 08:34:45;;;;;;;18.10;8.40;;;;;;;-3.12;77.78;97758.84;1687639;84;28368;-81
2021/12/21 08:37:12;;;;;;;27.37;13.10;;;;;;;-3.11;77.69;97758.36;1687477;84;26368;-81
2021/12/21 08:39:40;;;;;;;34.63;16.73;;;;;;;-3.06;77.67;97754.91;1687687;85;25832;-82
2021/12/21 08:42:15;;;;;;;36.73;19.15;;;;;;;-3.02;77.62;97765.61;1687579;85;26345;-82
2021/12/21 08:44:48;;;;;;;31.45;19.35;;;;;;;-3.00;77.58;97761.86;1687576;84;25632;-81
2021/12/21 08:47:16;;;;;;;28.38;17.60;;;;;;;-2.98;77.52;97771.83;1687666;85;28155;-82
2021/12/21 08:49:42;;;;;;;28.47;17.57;;;;;;;-2.94;77.51;97776.41;1687296;84;25747;-81
2021/12/21 08:52:10;;;;;;;30.68;16.50;;;;;;;-2.90;77.42;97777.86;1687607;85;25837;-80
2021/12/21 08:54:36;;;;;;;17.17;8.88;;;;;;;-2.92;77.36;97777.98;1687523;85;25775;-82
2021/12/21 08:57:03;;;;;;;20.65;12.45;;;;;;;-2.93;77.23;97780.73;1687672;85;25772;-82
2021/12/21 08:59:31;;;;;;;32.90;21.42;;;;;;;-2.89;77.31;97779.52;1687564;85;27379;-81
2021/12/21 09:01:58;;;;;;;25.82;16.48;;;;;;;-2.83;77.22;97784.34;1687430;84;25720;-80
2021/12/21 09:04:24;;;;;;;19.23;10.58;;;;;;;-2.77;77.12;97782.52;1687417;85;26408;-81
2021/12/21 09:06:52;;;;;;;22.40;13.13;;;;;;;-2.68;77.13;97783.16;1687280;85;26593;-81
2021/12/21 09:09:19;;;;;;;32.70;16.95;;;;;;;-2.55;77.05;97791.80;1687574;84;25739;-81
2021/12/21 09:11:46;;;;;;;82.12;38.17;;;;;;;-2.50;76.72;97783.97;1687488;85;27548;-81
2021/12/21 09:14:13;;;;;;;66.10;32.60;;;;;;;-2.50;76.60;97778.69;1687407;85;25767;-81
2021/12/21 09:16:39;;;;;;;37.50;18.00;;;;;;;-2.39;76.70;97776.03;1687534;84;25778;-82
2021/12/21 09:19:06;;;;;;;17.00;9.00;;;;;;;-2.16;76.60;97769.73;1687577;85;25819;-82
2021/12/21 09:21:33;;;;;;;16.48;9.20;;;;;;;-1.93;76.40;97768.71;1687648;85;25977;-81
2021/12/21 09:23:59;;;;;;;26.50;12.55;;;;;;;-1.79;76.05;97768.91;1687139;85;27493;-82
2021/12/21 09:26:27;;;;;;;90.15;39.58;;;;;;;-1.70;75.63;97769.50;1687094;85;26407;-81
2021/12/21 09:28:56;;;;;;;56.18;25.57;;;;;;;-1.64;75.62;97772.95;1687603;84;25709;-80
2021/12/21 09:31:22;;;;;;;60.50;26.07;;;;;;;-1.62;75.35;97769.70;1687483;85;26368;-81
2021/12/21 09:33:49;;;;;;;42.27;17.48;;;;;;;-1.67;75.14;97769.70;1687655;84;25774;-82
2021/12/21 09:36:16;;;;;;;25.05;10.75;;;;;;;-1.60;75.29;97770.91;1687623;84;27544;-82
2021/12/21 09:38:44;;;;;;;21.42;9.53;;;;;;;-1.55;75.19;97771.34;1687486;85;25798;-81
2021/12/21 09:41:11;;;;;;;19.15;8.58;;;;;;;-1.53;74.95;97770.73;1687589;85;25802;-80
2021/12/21 09:43:40;;;;;;;24.50;10.90;;;;;;;-1.57;74.69;97770.66;1687594;85;25755;-81
2021/12/21 09:46:11;;;;;;;36.53;16.10;;;;;;;-1.56;74.67;97768.34;1687636;84;25802;-80
2021/12/21 09:48:38;;;;;;;125.10;39.13;;;;;;;-1.50;74.50;97770.49;1687638;85;27492;-81
2021/12/21 09:51:06;;;;;;;74.95;30.88;;;;;;;-1.51;74.26;97768.80;1692016;84;43102;-80
2021/12/21 09:53:35;;;;;;;47.65;21.30;;;;;;;-1.45;74.11;97770.96;1697581;84;25806;-80
2021/12/21 09:56:04;;;;;;;43.75;19.75;;;;;;;-1.55;73.84;97770.02;1697900;84;26455;-81
2021/12/21 09:58:31;;;;;;;27.30;12.03;;;;;;;-1.48;74.00;97768.08;1697892;84;25663;-81
2021/12/21 10:00:58;;;;;;;15.00;8.50;;;;;;;-1.38;73.73;97769.47;1697798;84;27572;-81
2021/12/21 10:03:24;;;;;;;17.02;8.08;;;;;;;-1.33;73.57;97769.09;1697757;84;25372;-81
2021/12/21 10:06:02;;;;;;;12.85;6.47;;;;;;;-1.24;73.41;97770.48;1697532;84;25759;-81
2021/12/21 10:08:32;;;;;;;11.70;6.00;;;;;;;-1.17;73.01;97765.01;1697779;84;26356;-80
2021/12/21 10:11:00;;;;;;;12.43;5.60;;;;;;;-1.12;72.74;97765.47;1697939;84;25888;-81
2021/12/21 10:13:27;;;;;;;14.20;6.37;;;;;;;-1.07;72.58;97772.17;1697803;84;28429;-81
2021/12/21 10:15:59;;;;;;;11.68;4.97;;;;;;;-1.01;72.43;97766.36;1697481;84;25749;-81
2021/12/21 10:18:33;;;;;;;10.38;4.55;;;;;;;-0.97;72.05;97771.77;1697927;84;25755;-81
2021/12/21 10:21:04;;;;;;;17.30;6.25;;;;;;;-1.07;71.44;97770.84;1697805;84;26603;-81
2021/12/21 10:23:37;;;;;;;12.35;6.40;;;;;;;-1.32;70.93;97782.18;1697824;84;25752;-81
2021/12/21 10:26:11;;;;;;;17.45;7.15;;;;;;;-1.57;70.98;97778.59;1697764;84;27395;-81
2021/12/21 10:28:46;;;;;;;14.25;6.83;;;;;;;-1.70;71.15;97780.58;1689799;84;25825;-81
2021/12/21 10:31:36;;;;;;;13.65;6.85;;;;;;;-1.80;71.02;97775.17;1697847;84;25783;-81
2021/12/21 10:34:01;;;;;;;10.55;4.90;;;;;;;-1.83;71.26;97776.28;1697508;84;26389;-81
2021/12/21 10:36:29;;;;;;;10.93;4.22;;;;;;;-1.91;70.99;97769.44;1697791;83;25846;-81
2021/12/21 10:39:00;;;;;;;19.55;8.60;;;;;;;-2.05;70.89;97770.22;1671950;84;28359;-81
2021/12/21 10:41:33;;;;;;;16.20;6.97;;;;;;;-1.96;71.56;97776.92;1697691;84;25886;-81
2021/12/21 10:44:10;;;;;;;16.67;7.10;;;;;;;-1.88;71.35;97762.58;1697602;84;25755;-81
2021/12/21 10:46:44;;;;;;;28.73;11.93;;;;;;;-1.94;71.21;97764.41;1697732;84;26487;-81
2021/12/21 10:49:15;;;;;;;15.10;7.50;;;;;;;-1.94;71.38;97761.77;1697774;84;25822;-81
2021/12/21 10:52:09;;;;;;;11.95;5.12;;;;;;;-1.98;71.21;97762.13;1697680;83;28185;-81
2021/12/21 10:54:46;;;;;;;19.75;9.83;;;;;;;-1.97;71.58;97759.37;1668784;85;25993;-81
2021/12/21 10:57:23;;;;;;;18.92;8.83;;;;;;;-1.86;71.74;97760.65;1697023;83;25748;-81
2021/12/21 10:59:54;;;;;;;18.75;8.10;;;;;;;-1.84;71.45;97759.20;1697080;83;25769;-81
2021/12/21 11:02:28;;;;;;;21.45;10.03;;;;;;;-2.03;71.29;97757.20;1671014;84;25769;-81
2021/12/21 11:05:06;;;;;;;17.65;7.85;;;;;;;-2.12;71.33;97760.60;1696984;83;27431;-81
2021/12/21 11:07:43;;;;;;;24.57;12.28;;;;;;;-2.05;71.59;97759.13;1697226;83;26005;-81
2021/12/21 11:10:17;;;;;;;17.65;8.88;;;;;;;-1.89;71.81;97752.11;1696290;84;25726;-81
2021/12/21 11:12:56;;;;;;;16.93;8.65;;;;;;;-1.78;71.70;97749.91;1695908;83;26407;-81
2021/12/21 11:15:29;;;;;;;;;;;;;;;-1.67;71.42;97744.56;1699585;84;25774;-80
2021/12/21 11:17:58;;;;;;;15.23;7.53;;;;;;;-1.49;71.23;97747.02;1697066;83;27601;-82
2021/12/21 11:20:26;;;;;;;13.50;9.20;;;;;;;-1.05;71.49;97745.06;1696955;83;25773;-81
2021/12/21 11:22:54;;;;;;;17.87;8.68;;;;;;;-0.58;71.04;97745.78;1696969;83;25757;-81
2021/12/21 11:25:22;;;;;;;20.75;8.75;;;;;;;-0.19;70.56;97733.97;1696984;84;26582;-81
2021/12/21 11:27:51;;;;;;;26.95;14.15;;;;;;;0.14;70.26;97734.91;1696991;84;25737;-82
2021/12/21 11:30:24;;;;;;;103.53;43.98;;;;;;;0.31;69.42;97734.73;1697052;84;28244;-82
2021/12/21 11:32:53;;;;;;;44.25;19.82;;;;;;;0.35;69.25;97730.83;1696914;83;25776;-83
2021/12/21 11:37:56;;;;;;;31.20;17.73;;;;;;;0.45;68.36;97730.33;1696556;83;26597;-83
2021/12/21 11:40:27;;;;;;;19.90;11.68;;;;;;;0.35;67.95;97729.50;1696986;83;25789;-84
2021/12/21 11:43:28;;;;;;;26.25;11.00;;;;;;;0.49;68.40;97727.72;1697136;83;27485;-83
2021/12/21 11:46:12;;;;;;;14.07;7.92;;;;;;;0.55;67.91;97736.96;1696865;83;25844;-83
2021/12/21 11:48:50;;;;;;;53.08;17.92;;;;;;;0.41;67.97;97733.39;1697021;83;25754;-84
2021/12/21 11:51:17;;;;;;;68.55;26.35;;;;;;;0.49;67.81;97732.20;1694016;83;26368;-83
2021/12/21 11:53:44;;;;;;;24.65;12.55;;;;;;;0.42;67.41;97732.42;1696756;83;25832;-82
2021/12/21 11:56:19;;;;;;;25.27;12.13;;;;;;;0.20;67.17;97726.41;1696866;83;27223;-82
2021/12/21 11:58:48;;;;;;;47.23;26.05;;;;;;;0.16;67.56;97724.16;1696809;83;25770;-82
2021/12/21 12:01:23;;;;;;;32.98;17.45;;;;;;;0.20;67.44;97730.39;1697132;83;25745;-81
2021/12/21 12:04:04;;;;;;;24.32;14.85;;;;;;;0.20;67.25;97731.72;1697241;83;25826;-81
2021/12/21 12:06:54;;;;;;;27.52;13.53;;;;;;;0.11;67.20;97743.18;1697106;83;25762;-82
2021/12/21 12:09:31;;;;;;;22.10;10.98;;;;;;;0.00;66.69;97743.30;1697167;83;27361;-81
2021/12/21 12:12:16;;;;;;;22.42;11.48;;;;;;;-0.40;66.70;97741.53;1697013;83;25679;-81